<?xml version="1.0" encoding="UTF-8"?><gpx xmlns="http://www.topografix.com/GPX/1/1" version="1.1" creator="iOrient"><trk><name>Необычные лики Томска</name><trkseg><trkpt lat="56.4875704" lon="84.9803541"><time>2023-11-06T05:06:29.630</time></trkpt><trkpt lat="56.4876143" lon="84.9802603"><time>2023-11-06T05:06:30.393</time></trkpt><trkpt lat="56.4875830" lon="84.9801960"><time>2023-11-06T05:06:32.390</time></trkpt><trkpt lat="56.4875403" lon="84.9801315"><time>2023-11-06T05:06:40.407</time></trkpt><trkpt lat="56.4874910" lon="84.9801083"><time>2023-11-06T05:06:48.417</time></trkpt><trkpt lat="56.4874477" lon="84.9800735"><time>2023-11-06T05:07:05.397</time></trkpt><trkpt lat="56.4874597" lon="84.9799943"><time>2023-11-06T05:07:22.407</time></trkpt><trkpt lat="56.4875027" lon="84.9800384"><time>2023-11-06T05:08:11.413</time></trkpt><trkpt lat="56.4875466" lon="84.9800009"><time>2023-11-06T05:08:16.417</time></trkpt><trkpt lat="56.4875938" lon="84.9800302"><time>2023-11-06T05:08:22.410</time></trkpt><trkpt lat="56.4876268" lon="84.9800949"><time>2023-11-06T05:08:26.417</time></trkpt><trkpt lat="56.4876542" lon="84.9801618"><time>2023-11-06T05:08:31.410</time></trkpt><trkpt lat="56.4877020" lon="84.9801833"><time>2023-11-06T05:08:34.410</time></trkpt><trkpt lat="56.4877400" lon="84.9801338"><time>2023-11-06T05:08:39.420</time></trkpt><trkpt lat="56.4877778" lon="84.9801216"><time>2023-11-06T05:09:01.437</time></trkpt><trkpt lat="56.4877852" lon="84.9801311"><time>2023-11-06T05:09:09.407</time></trkpt><trkpt lat="56.4877912" lon="84.9802139"><time>2023-11-06T05:09:27.410</time></trkpt><trkpt lat="56.4877671" lon="84.9802850"><time>2023-11-06T05:09:32.417</time></trkpt><trkpt lat="56.4877145" lon="84.9802977"><time>2023-11-06T05:09:35.413</time></trkpt><trkpt lat="56.4876607" lon="84.9803211"><time>2023-11-06T05:09:39.413</time></trkpt><trkpt lat="56.4876161" lon="84.9803468"><time>2023-11-06T05:09:43.417</time></trkpt><trkpt lat="56.4875700" lon="84.9803495"><time>2023-11-06T05:09:46.410</time></trkpt><trkpt lat="56.4875233" lon="84.9803517"><time>2023-11-06T05:09:50.410</time></trkpt><trkpt lat="56.4874777" lon="84.9803669"><time>2023-11-06T05:09:54.410</time></trkpt><trkpt lat="56.4874236" lon="84.9803748"><time>2023-11-06T05:09:58.413</time></trkpt><trkpt lat="56.4873696" lon="84.9804125"><time>2023-11-06T05:10:02.410</time></trkpt><trkpt lat="56.4873161" lon="84.9804451"><time>2023-11-06T05:10:06.413</time></trkpt><trkpt lat="56.4872694" lon="84.9804579"><time>2023-11-06T05:10:09.413</time></trkpt><trkpt lat="56.4872221" lon="84.9804682"><time>2023-11-06T05:10:12.413</time></trkpt><trkpt lat="56.4871611" lon="84.9804833"><time>2023-11-06T05:10:16.417</time></trkpt><trkpt lat="56.4871161" lon="84.9805048"><time>2023-11-06T05:10:19.400</time></trkpt><trkpt lat="56.4870634" lon="84.9805037"><time>2023-11-06T05:10:22.410</time></trkpt><trkpt lat="56.4870143" lon="84.9805053"><time>2023-11-06T05:10:25.410</time></trkpt><trkpt lat="56.4869704" lon="84.9805271"><time>2023-11-06T05:10:28.417</time></trkpt><trkpt lat="56.4869220" lon="84.9805491"><time>2023-11-06T05:10:31.407</time></trkpt><trkpt lat="56.4868692" lon="84.9805691"><time>2023-11-06T05:10:34.413</time></trkpt><trkpt lat="56.4868199" lon="84.9805900"><time>2023-11-06T05:10:37.397</time></trkpt><trkpt lat="56.4867616" lon="84.9806000"><time>2023-11-06T05:10:41.410</time></trkpt><trkpt lat="56.4867140" lon="84.9806172"><time>2023-11-06T05:10:44.407</time></trkpt><trkpt lat="56.4866553" lon="84.9806454"><time>2023-11-06T05:10:48.420</time></trkpt><trkpt lat="56.4866068" lon="84.9806584"><time>2023-11-06T05:10:51.410</time></trkpt><trkpt lat="56.4865561" lon="84.9806714"><time>2023-11-06T05:10:54.413</time></trkpt><trkpt lat="56.4865112" lon="84.9806797"><time>2023-11-06T05:10:57.413</time></trkpt><trkpt lat="56.4864589" lon="84.9806881"><time>2023-11-06T05:11:01.410</time></trkpt><trkpt lat="56.4864001" lon="84.9807156"><time>2023-11-06T05:11:05.407</time></trkpt><trkpt lat="56.4863362" lon="84.9807206"><time>2023-11-06T05:11:08.410</time></trkpt><trkpt lat="56.4862816" lon="84.9807476"><time>2023-11-06T05:11:11.413</time></trkpt><trkpt lat="56.4862357" lon="84.9807497"><time>2023-11-06T05:11:14.413</time></trkpt><trkpt lat="56.4861903" lon="84.9807659"><time>2023-11-06T05:11:18.410</time></trkpt><trkpt lat="56.4861763" lon="84.9806840"><time>2023-11-06T05:11:26.410</time></trkpt><trkpt lat="56.4861733" lon="84.9806016"><time>2023-11-06T05:11:30.413</time></trkpt><trkpt lat="56.4861665" lon="84.9805203"><time>2023-11-06T05:11:37.410</time></trkpt><trkpt lat="56.4861606" lon="84.9804337"><time>2023-11-06T05:11:42.417</time></trkpt><trkpt lat="56.4861545" lon="84.9803518"><time>2023-11-06T05:11:45.417</time></trkpt><trkpt lat="56.4861420" lon="84.9802721"><time>2023-11-06T05:11:56.410</time></trkpt><trkpt lat="56.4861212" lon="84.9801806"><time>2023-11-06T05:12:01.417</time></trkpt><trkpt lat="56.4860693" lon="84.9801389"><time>2023-11-06T05:12:04.410</time></trkpt><trkpt lat="56.4860248" lon="84.9801178"><time>2023-11-06T05:12:07.417</time></trkpt><trkpt lat="56.4859775" lon="84.9800989"><time>2023-11-06T05:12:15.410</time></trkpt><trkpt lat="56.4859287" lon="84.9800717"><time>2023-11-06T05:12:21.413</time></trkpt><trkpt lat="56.4858912" lon="84.9800168"><time>2023-11-06T05:12:26.413</time></trkpt><trkpt lat="56.4858507" lon="84.9799781"><time>2023-11-06T05:12:31.410</time></trkpt><trkpt lat="56.4857945" lon="84.9799551"><time>2023-11-06T05:12:39.410</time></trkpt><trkpt lat="56.4857861" lon="84.9798615"><time>2023-11-06T05:12:50.413</time></trkpt><trkpt lat="56.4857895" lon="84.9797711"><time>2023-11-06T05:12:54.417</time></trkpt><trkpt lat="56.4858025" lon="84.9796884"><time>2023-11-06T05:12:57.413</time></trkpt><trkpt lat="56.4858009" lon="84.9795873"><time>2023-11-06T05:13:00.410</time></trkpt><trkpt lat="56.4858005" lon="84.9795024"><time>2023-11-06T05:13:02.417</time></trkpt><trkpt lat="56.4857887" lon="84.9794225"><time>2023-11-06T05:13:04.420</time></trkpt><trkpt lat="56.4857577" lon="84.9793348"><time>2023-11-06T05:13:07.413</time></trkpt><trkpt lat="56.4857209" lon="84.9792696"><time>2023-11-06T05:13:10.410</time></trkpt><trkpt lat="56.4856836" lon="84.9792055"><time>2023-11-06T05:13:13.413</time></trkpt><trkpt lat="56.4856504" lon="84.9791453"><time>2023-11-06T05:13:16.410</time></trkpt><trkpt lat="56.4856091" lon="84.9790698"><time>2023-11-06T05:13:20.420</time></trkpt><trkpt lat="56.4855763" lon="84.9790069"><time>2023-11-06T05:13:23.410</time></trkpt><trkpt lat="56.4855458" lon="84.9789454"><time>2023-11-06T05:13:26.417</time></trkpt><trkpt lat="56.4855017" lon="84.9788831"><time>2023-11-06T05:13:31.413</time></trkpt><trkpt lat="56.4854564" lon="84.9788466"><time>2023-11-06T05:13:35.417</time></trkpt><trkpt lat="56.4854148" lon="84.9788016"><time>2023-11-06T05:13:40.410</time></trkpt><trkpt lat="56.4853703" lon="84.9787511"><time>2023-11-06T05:13:44.410</time></trkpt><trkpt lat="56.4853219" lon="84.9787130"><time>2023-11-06T05:13:48.407</time></trkpt><trkpt lat="56.4852743" lon="84.9786943"><time>2023-11-06T05:13:51.407</time></trkpt><trkpt lat="56.4852156" lon="84.9786746"><time>2023-11-06T05:13:54.417</time></trkpt><trkpt lat="56.4851515" lon="84.9786352"><time>2023-11-06T05:13:57.413</time></trkpt><trkpt lat="56.4851076" lon="84.9786112"><time>2023-11-06T05:13:59.410</time></trkpt><trkpt lat="56.4850543" lon="84.9785928"><time>2023-11-06T05:14:02.413</time></trkpt><trkpt lat="56.4850520" lon="84.9785067"><time>2023-11-06T05:14:27.410</time></trkpt><trkpt lat="56.4850762" lon="84.9784305"><time>2023-11-06T05:14:34.403</time></trkpt><trkpt lat="56.4850662" lon="84.9784167"><time>2023-11-06T05:14:39.730</time></trkpt><trkpt lat="56.4850501" lon="84.9785081"><time>2023-11-06T05:14:55.410</time></trkpt><trkpt lat="56.4789810" lon="84.9742491"><time>2023-11-06T05:27:26.873</time></trkpt><trkpt lat="56.4787321" lon="84.9743404"><time>2023-11-06T05:27:31.183</time></trkpt><trkpt lat="56.4787817" lon="84.9743461"><time>2023-11-06T05:27:33.867</time></trkpt><trkpt lat="56.4787669" lon="84.9744378"><time>2023-11-06T05:27:44.867</time></trkpt><trkpt lat="56.4787261" lon="84.9744911"><time>2023-11-06T05:27:49.870</time></trkpt><trkpt lat="56.4786814" lon="84.9745347"><time>2023-11-06T05:27:53.870</time></trkpt><trkpt lat="56.4786351" lon="84.9745384"><time>2023-11-06T05:28:00.873</time></trkpt><trkpt lat="56.4786132" lon="84.9745362"><time>2023-11-06T05:28:14.823</time></trkpt><trkpt lat="56.4785881" lon="84.9745449"><time>2023-11-06T05:28:41.877</time></trkpt><trkpt lat="56.4802297" lon="84.9703180"><time>2023-11-06T05:34:15.670</time></trkpt><trkpt lat="56.4801430" lon="84.9702517"><time>2023-11-06T05:34:18.967</time></trkpt><trkpt lat="56.4801962" lon="84.9702276"><time>2023-11-06T05:34:20.663</time></trkpt><trkpt lat="56.4801815" lon="84.9701652"><time>2023-11-06T05:34:27.790</time></trkpt><trkpt lat="56.4802236" lon="84.9703093"><time>2023-11-06T05:34:41.660</time></trkpt><trkpt lat="56.4802533" lon="84.9703735"><time>2023-11-06T05:35:02.660</time></trkpt><trkpt lat="56.4802265" lon="84.9704972"><time>2023-11-06T05:35:23.587</time></trkpt><trkpt lat="56.4801698" lon="84.9703712"><time>2023-11-06T05:35:24.667</time></trkpt><trkpt lat="56.4801213" lon="84.9704108"><time>2023-11-06T05:35:28.673</time></trkpt><trkpt lat="56.4759659" lon="84.9656190"><time>2023-11-06T05:55:28.240</time></trkpt><trkpt lat="56.4760868" lon="84.9656327"><time>2023-11-06T05:55:31.547</time></trkpt><trkpt lat="56.4760647" lon="84.9657412"><time>2023-11-06T05:55:39.230</time></trkpt><trkpt lat="56.4760354" lon="84.9658280"><time>2023-11-06T05:55:41.233</time></trkpt><trkpt lat="56.4760058" lon="84.9659183"><time>2023-11-06T05:55:43.237</time></trkpt><trkpt lat="56.4759538" lon="84.9659430"><time>2023-11-06T05:55:45.230</time></trkpt><trkpt lat="56.4758911" lon="84.9659388"><time>2023-11-06T05:55:47.603</time></trkpt><trkpt lat="56.4758395" lon="84.9659358"><time>2023-11-06T05:55:49.237</time></trkpt><trkpt lat="56.4757852" lon="84.9658891"><time>2023-11-06T05:55:52.230</time></trkpt><trkpt lat="56.4757726" lon="84.9658772"><time>2023-11-06T05:55:54.107</time></trkpt><trkpt lat="56.4758349" lon="84.9658980"><time>2023-11-06T05:56:08.230</time></trkpt><trkpt lat="56.4758820" lon="84.9659062"><time>2023-11-06T05:56:11.380</time></trkpt><trkpt lat="56.4759277" lon="84.9659206"><time>2023-11-06T05:56:14.227</time></trkpt><trkpt lat="56.4759830" lon="84.9659217"><time>2023-11-06T05:56:19.227</time></trkpt><trkpt lat="56.4760410" lon="84.9659190"><time>2023-11-06T05:56:22.227</time></trkpt><trkpt lat="56.4760906" lon="84.9658955"><time>2023-11-06T05:56:25.227</time></trkpt><trkpt lat="56.4723099" lon="84.9652530"><time>2023-11-06T06:04:02.227</time></trkpt><trkpt lat="56.4723244" lon="84.9653334"><time>2023-11-06T06:04:03.237</time></trkpt><trkpt lat="56.4722195" lon="84.9654961"><time>2023-11-06T06:04:04.237</time></trkpt><trkpt lat="56.4708388" lon="84.9653499"><time>2023-11-06T06:06:32.227</time></trkpt><trkpt lat="56.4707866" lon="84.9653429"><time>2023-11-06T06:06:40.227</time></trkpt><trkpt lat="56.4707490" lon="84.9652849"><time>2023-11-06T06:06:46.237</time></trkpt><trkpt lat="56.4707020" lon="84.9652984"><time>2023-11-06T06:06:55.230</time></trkpt><trkpt lat="56.4706518" lon="84.9653005"><time>2023-11-06T06:07:01.237</time></trkpt><trkpt lat="56.4706010" lon="84.9653042"><time>2023-11-06T06:07:13.223</time></trkpt><trkpt lat="56.4705515" lon="84.9653224"><time>2023-11-06T06:07:18.233</time></trkpt><trkpt lat="56.4705062" lon="84.9652997"><time>2023-11-06T06:07:22.237</time></trkpt><trkpt lat="56.4704619" lon="84.9652763"><time>2023-11-06T06:07:26.240</time></trkpt><trkpt lat="56.4704133" lon="84.9652524"><time>2023-11-06T06:07:31.237</time></trkpt><trkpt lat="56.4703682" lon="84.9652605"><time>2023-11-06T06:07:34.233</time></trkpt><trkpt lat="56.4703182" lon="84.9652652"><time>2023-11-06T06:07:38.237</time></trkpt><trkpt lat="56.4702687" lon="84.9652628"><time>2023-11-06T06:07:43.240</time></trkpt><trkpt lat="56.4702177" lon="84.9652525"><time>2023-11-06T06:07:47.233</time></trkpt><trkpt lat="56.4701648" lon="84.9652626"><time>2023-11-06T06:07:51.237</time></trkpt><trkpt lat="56.4701196" lon="84.9652783"><time>2023-11-06T06:07:54.237</time></trkpt><trkpt lat="56.4700726" lon="84.9652799"><time>2023-11-06T06:07:58.237</time></trkpt><trkpt lat="56.4700142" lon="84.9652893"><time>2023-11-06T06:08:03.233</time></trkpt><trkpt lat="56.4699638" lon="84.9652947"><time>2023-11-06T06:08:07.230</time></trkpt><trkpt lat="56.4699179" lon="84.9652850"><time>2023-11-06T06:08:11.230</time></trkpt><trkpt lat="56.4698693" lon="84.9652786"><time>2023-11-06T06:08:15.237</time></trkpt><trkpt lat="56.4698126" lon="84.9652893"><time>2023-11-06T06:08:20.230</time></trkpt><trkpt lat="56.4697632" lon="84.9652975"><time>2023-11-06T06:08:24.237</time></trkpt><trkpt lat="56.4700211" lon="84.9625480"><time>2023-11-06T06:14:00.633</time></trkpt><trkpt lat="56.4699523" lon="84.9624768"><time>2023-11-06T06:14:01.327</time></trkpt><trkpt lat="56.4699127" lon="84.9625155"><time>2023-11-06T06:14:03.320</time></trkpt><trkpt lat="56.4698725" lon="84.9624702"><time>2023-11-06T06:14:49.347</time></trkpt><trkpt lat="56.4698411" lon="84.9625290"><time>2023-11-06T06:14:58.330</time></trkpt><trkpt lat="56.4697910" lon="84.9625567"><time>2023-11-06T06:15:04.347</time></trkpt><trkpt lat="56.4697462" lon="84.9625993"><time>2023-11-06T06:15:08.337</time></trkpt><trkpt lat="56.4697013" lon="84.9626378"><time>2023-11-06T06:15:16.330</time></trkpt><trkpt lat="56.4696581" lon="84.9626644"><time>2023-11-06T06:15:24.327</time></trkpt><trkpt lat="56.4696165" lon="84.9627157"><time>2023-11-06T06:15:30.337</time></trkpt><trkpt lat="56.4695883" lon="84.9627794"><time>2023-11-06T06:15:36.330</time></trkpt><trkpt lat="56.4695508" lon="84.9628377"><time>2023-11-06T06:15:41.327</time></trkpt><trkpt lat="56.4694949" lon="84.9628412"><time>2023-11-06T06:16:24.340</time></trkpt><trkpt lat="56.4694469" lon="84.9628642"><time>2023-11-06T06:16:28.337</time></trkpt><trkpt lat="56.4693928" lon="84.9628874"><time>2023-11-06T06:16:32.337</time></trkpt><trkpt lat="56.4693420" lon="84.9628969"><time>2023-11-06T06:16:36.333</time></trkpt><trkpt lat="56.4692911" lon="84.9628967"><time>2023-11-06T06:16:39.337</time></trkpt><trkpt lat="56.4692331" lon="84.9628861"><time>2023-11-06T06:16:42.340</time></trkpt><trkpt lat="56.4691732" lon="84.9628871"><time>2023-11-06T06:16:46.333</time></trkpt><trkpt lat="56.4691209" lon="84.9628760"><time>2023-11-06T06:16:51.347</time></trkpt><trkpt lat="56.4690719" lon="84.9628463"><time>2023-11-06T06:16:55.340</time></trkpt><trkpt lat="56.4690253" lon="84.9628401"><time>2023-11-06T06:16:58.337</time></trkpt><trkpt lat="56.4689700" lon="84.9628253"><time>2023-11-06T06:17:03.337</time></trkpt><trkpt lat="56.4682646" lon="84.9630115"><time>2023-11-06T06:18:02.080</time></trkpt><trkpt lat="56.4682277" lon="84.9628323"><time>2023-11-06T06:18:03.077</time></trkpt><trkpt lat="56.4681680" lon="84.9629312"><time>2023-11-06T06:18:05.077</time></trkpt><trkpt lat="56.4681263" lon="84.9630384"><time>2023-11-06T06:18:09.090</time></trkpt><trkpt lat="56.4680725" lon="84.9630273"><time>2023-11-06T06:18:21.083</time></trkpt><trkpt lat="56.4680349" lon="84.9629483"><time>2023-11-06T06:18:27.093</time></trkpt><trkpt lat="56.4679944" lon="84.9628898"><time>2023-11-06T06:18:29.153</time></trkpt><trkpt lat="56.4679506" lon="84.9628483"><time>2023-11-06T06:18:31.093</time></trkpt><trkpt lat="56.4678939" lon="84.9627942"><time>2023-11-06T06:18:34.090</time></trkpt><trkpt lat="56.4678440" lon="84.9627459"><time>2023-11-06T06:18:38.147</time></trkpt><trkpt lat="56.4678011" lon="84.9627001"><time>2023-11-06T06:18:44.157</time></trkpt><trkpt lat="56.4677534" lon="84.9627292"><time>2023-11-06T06:18:48.093</time></trkpt><trkpt lat="56.4677064" lon="84.9627494"><time>2023-11-06T06:18:53.090</time></trkpt><trkpt lat="56.4677561" lon="84.9627392"><time>2023-11-06T06:19:04.147</time></trkpt><trkpt lat="56.4678070" lon="84.9627825"><time>2023-11-06T06:19:08.093</time></trkpt><trkpt lat="56.4678592" lon="84.9628107"><time>2023-11-06T06:19:11.087</time></trkpt><trkpt lat="56.4679115" lon="84.9628474"><time>2023-11-06T06:19:17.097</time></trkpt><trkpt lat="56.4656861" lon="84.9573241"><time>2023-11-06T06:33:34.853</time></trkpt><trkpt lat="56.4659596" lon="84.9575230"><time>2023-11-06T06:33:36.577</time></trkpt><trkpt lat="56.4659596" lon="84.9575230"><time>2023-11-06T06:33:41.237</time></trkpt><trkpt lat="56.4693562" lon="84.9575768"><time>2023-11-06T06:38:32.787</time></trkpt><trkpt lat="56.4693824" lon="84.9576991"><time>2023-11-06T06:38:33.823</time></trkpt><trkpt lat="56.4693535" lon="84.9577615"><time>2023-11-06T06:38:38.797</time></trkpt><trkpt lat="56.4694100" lon="84.9577263"><time>2023-11-06T06:38:46.800</time></trkpt><trkpt lat="56.4709642" lon="84.9577902"><time>2023-11-06T06:40:15.273</time></trkpt><trkpt lat="56.4709868" lon="84.9578744"><time>2023-11-06T06:40:16.277</time></trkpt><trkpt lat="56.4709643" lon="84.9577497"><time>2023-11-06T06:40:17.263</time></trkpt><trkpt lat="56.4710089" lon="84.9577752"><time>2023-11-06T06:40:19.263</time></trkpt><trkpt lat="56.4710491" lon="84.9578162"><time>2023-11-06T06:40:23.260</time></trkpt><trkpt lat="56.4711045" lon="84.9578176"><time>2023-11-06T06:40:26.257</time></trkpt><trkpt lat="56.4711500" lon="84.9578210"><time>2023-11-06T06:40:29.257</time></trkpt><trkpt lat="56.4711964" lon="84.9578214"><time>2023-11-06T06:40:32.260</time></trkpt><trkpt lat="56.4712517" lon="84.9578061"><time>2023-11-06T06:40:36.260</time></trkpt><trkpt lat="56.4712056" lon="84.9578318"><time>2023-11-06T06:40:43.273</time></trkpt><trkpt lat="56.4711589" lon="84.9578170"><time>2023-11-06T06:40:46.263</time></trkpt><trkpt lat="56.4711017" lon="84.9577989"><time>2023-11-06T06:40:49.277</time></trkpt><trkpt lat="56.4710480" lon="84.9577861"><time>2023-11-06T06:40:52.273</time></trkpt><trkpt lat="56.4710380" lon="84.9576890"><time>2023-11-06T06:40:59.267</time></trkpt><trkpt lat="56.4710245" lon="84.9576064"><time>2023-11-06T06:41:05.263</time></trkpt><trkpt lat="56.4710213" lon="84.9575215"><time>2023-11-06T06:41:10.263</time></trkpt><trkpt lat="56.4710251" lon="84.9574355"><time>2023-11-06T06:41:14.283</time></trkpt><trkpt lat="56.4710287" lon="84.9573526"><time>2023-11-06T06:41:18.263</time></trkpt><trkpt lat="56.4710279" lon="84.9574474"><time>2023-11-06T06:41:35.267</time></trkpt><trkpt lat="56.4710305" lon="84.9575321"><time>2023-11-06T06:41:40.263</time></trkpt><trkpt lat="56.4710419" lon="84.9576286"><time>2023-11-06T06:41:45.280</time></trkpt><trkpt lat="56.4710897" lon="84.9576890"><time>2023-11-06T06:41:49.267</time></trkpt><trkpt lat="56.4711362" lon="84.9577195"><time>2023-11-06T06:41:54.267</time></trkpt><trkpt lat="56.4711846" lon="84.9577266"><time>2023-11-06T06:41:58.267</time></trkpt><trkpt lat="56.4712270" lon="84.9576833"><time>2023-11-06T06:42:03.263</time></trkpt><trkpt lat="56.4712327" lon="84.9576930"><time>2023-11-06T06:42:09.983</time></trkpt><trkpt lat="56.4712789" lon="84.9577113"><time>2023-11-06T06:42:23.263</time></trkpt><trkpt lat="56.4713223" lon="84.9577326"><time>2023-11-06T06:42:31.263</time></trkpt><trkpt lat="56.4713717" lon="84.9577486"><time>2023-11-06T06:42:35.263</time></trkpt><trkpt lat="56.4714204" lon="84.9577644"><time>2023-11-06T06:42:39.267</time></trkpt><trkpt lat="56.4714736" lon="84.9577594"><time>2023-11-06T06:42:43.267</time></trkpt><trkpt lat="56.4715228" lon="84.9577599"><time>2023-11-06T06:42:47.257</time></trkpt><trkpt lat="56.4715666" lon="84.9577822"><time>2023-11-06T06:42:51.343</time></trkpt><trkpt lat="56.4716760" lon="84.9506361"><time>2023-11-06T06:48:16.613</time></trkpt><trkpt lat="56.4716107" lon="84.9505892"><time>2023-11-06T06:48:17.610</time></trkpt><trkpt lat="56.4716743" lon="84.9506879"><time>2023-11-06T06:48:18.617</time></trkpt><trkpt lat="56.4716399" lon="84.9505777"><time>2023-11-06T06:48:18.907</time></trkpt><trkpt lat="56.4716109" lon="84.9507446"><time>2023-11-06T06:48:20.610</time></trkpt><trkpt lat="56.4715655" lon="84.9507701"><time>2023-11-06T06:48:26.610</time></trkpt><trkpt lat="56.4715193" lon="84.9507680"><time>2023-11-06T06:48:30.617</time></trkpt><trkpt lat="56.4715653" lon="84.9507695"><time>2023-11-06T06:49:09.607</time></trkpt><trkpt lat="56.4716137" lon="84.9507663"><time>2023-11-06T06:49:13.607</time></trkpt><trkpt lat="56.4715665" lon="84.9507768"><time>2023-11-06T06:49:54.640</time></trkpt><trkpt lat="56.4715223" lon="84.9508129"><time>2023-11-06T06:50:20.617</time></trkpt><trkpt lat="56.4715048" lon="84.9507361"><time>2023-11-06T06:52:09.613</time></trkpt><trkpt lat="56.4715178" lon="84.9507333"><time>2023-11-06T06:52:20.170</time></trkpt><trkpt lat="56.4734498" lon="84.9544609"><time>2023-11-06T06:58:20.350</time></trkpt><trkpt lat="56.4734375" lon="84.9543012"><time>2023-11-06T06:58:20.653</time></trkpt><trkpt lat="56.4733863" lon="84.9541257"><time>2023-11-06T06:58:21.660</time></trkpt><trkpt lat="56.4733806" lon="84.9542515"><time>2023-11-06T06:58:22.667</time></trkpt><trkpt lat="56.4733804" lon="84.9543390"><time>2023-11-06T06:58:27.647</time></trkpt><trkpt lat="56.4734261" lon="84.9543888"><time>2023-11-06T06:58:31.647</time></trkpt><trkpt lat="56.4734716" lon="84.9544074"><time>2023-11-06T06:58:34.650</time></trkpt><trkpt lat="56.4735258" lon="84.9544207"><time>2023-11-06T06:58:38.640</time></trkpt><trkpt lat="56.4735450" lon="84.9544755"><time>2023-11-06T06:58:43.080</time></trkpt><trkpt lat="56.4735747" lon="84.9544551"><time>2023-11-06T06:58:49.647</time></trkpt><trkpt lat="56.4736239" lon="84.9544613"><time>2023-11-06T06:58:54.653</time></trkpt><trkpt lat="56.4741257" lon="84.9540784"><time>2023-11-06T07:00:36.890</time></trkpt><trkpt lat="56.4741822" lon="84.9540618"><time>2023-11-06T07:00:37.643</time></trkpt><trkpt lat="56.4742085" lon="84.9541883"><time>2023-11-06T07:00:39.640</time></trkpt><trkpt lat="56.4741511" lon="84.9541628"><time>2023-11-06T07:00:41.657</time></trkpt><trkpt lat="56.4742049" lon="84.9541365"><time>2023-11-06T07:00:50.650</time></trkpt><trkpt lat="56.4742530" lon="84.9541025"><time>2023-11-06T07:00:55.647</time></trkpt><trkpt lat="56.4742910" lon="84.9540523"><time>2023-11-06T07:01:01.653</time></trkpt><trkpt lat="56.4743384" lon="84.9540108"><time>2023-11-06T07:01:06.653</time></trkpt><trkpt lat="56.4743875" lon="84.9539756"><time>2023-11-06T07:01:10.650</time></trkpt><trkpt lat="56.4744348" lon="84.9539176"><time>2023-11-06T07:01:14.650</time></trkpt><trkpt lat="56.4744772" lon="84.9538863"><time>2023-11-06T07:01:18.660</time></trkpt><trkpt lat="56.4745187" lon="84.9538464"><time>2023-11-06T07:01:22.650</time></trkpt><trkpt lat="56.4745707" lon="84.9538125"><time>2023-11-06T07:01:27.647</time></trkpt><trkpt lat="56.4746172" lon="84.9537909"><time>2023-11-06T07:01:32.650</time></trkpt><trkpt lat="56.4746632" lon="84.9537759"><time>2023-11-06T07:01:36.650</time></trkpt><trkpt lat="56.4747076" lon="84.9537408"><time>2023-11-06T07:01:40.657</time></trkpt><trkpt lat="56.4747518" lon="84.9536972"><time>2023-11-06T07:01:45.647</time></trkpt><trkpt lat="56.4747916" lon="84.9536591"><time>2023-11-06T07:01:49.650</time></trkpt><trkpt lat="56.4748321" lon="84.9536171"><time>2023-11-06T07:01:55.700</time></trkpt><trkpt lat="56.4748863" lon="84.9535857"><time>2023-11-06T07:02:01.657</time></trkpt><trkpt lat="56.4749308" lon="84.9535685"><time>2023-11-06T07:02:05.703</time></trkpt><trkpt lat="56.4749748" lon="84.9535271"><time>2023-11-06T07:02:10.700</time></trkpt><trkpt lat="56.4750275" lon="84.9535014"><time>2023-11-06T07:02:15.650</time></trkpt><trkpt lat="56.4750763" lon="84.9535019"><time>2023-11-06T07:02:20.647</time></trkpt><trkpt lat="56.4756495" lon="84.9498515"><time>2023-11-06T07:05:52.813</time></trkpt><trkpt lat="56.4756981" lon="84.9498215"><time>2023-11-06T07:05:53.813</time></trkpt><trkpt lat="56.4766928" lon="84.9497282"><time>2023-11-06T07:07:29.710</time></trkpt><trkpt lat="56.4766075" lon="84.9499525"><time>2023-11-06T07:07:30.703</time></trkpt><trkpt lat="56.4765910" lon="84.9500459"><time>2023-11-06T07:07:31.003</time></trkpt><trkpt lat="56.4759868" lon="84.9493258"><time>2023-11-06T07:08:29.677</time></trkpt><trkpt lat="56.4759176" lon="84.9492365"><time>2023-11-06T07:08:30.697</time></trkpt><trkpt lat="56.4758788" lon="84.9491481"><time>2023-11-06T07:08:31.683</time></trkpt><trkpt lat="56.4759094" lon="84.9492571"><time>2023-11-06T07:08:32.687</time></trkpt><trkpt lat="56.4758946" lon="84.9493386"><time>2023-11-06T07:08:34.697</time></trkpt><trkpt lat="56.4759206" lon="84.9493433"><time>2023-11-06T07:08:37.307</time></trkpt><trkpt lat="56.4759448" lon="84.9493689"><time>2023-11-06T07:08:38.693</time></trkpt><trkpt lat="56.4758180" lon="84.9507311"><time>2023-11-06T07:10:31.697</time></trkpt><trkpt lat="56.4760996" lon="84.9507407"><time>2023-11-06T07:10:32.700</time></trkpt><trkpt lat="56.4761557" lon="84.9507363"><time>2023-11-06T07:10:34.697</time></trkpt><trkpt lat="56.4761349" lon="84.9508181"><time>2023-11-06T07:10:44.700</time></trkpt><trkpt lat="56.4761264" lon="84.9509077"><time>2023-11-06T07:10:48.697</time></trkpt><trkpt lat="56.4761251" lon="84.9509893"><time>2023-11-06T07:10:51.700</time></trkpt><trkpt lat="56.4761217" lon="84.9510764"><time>2023-11-06T07:10:55.693</time></trkpt><trkpt lat="56.4761152" lon="84.9511718"><time>2023-11-06T07:10:59.697</time></trkpt><trkpt lat="56.4761028" lon="84.9512717"><time>2023-11-06T07:11:03.700</time></trkpt><trkpt lat="56.4761068" lon="84.9513620"><time>2023-11-06T07:11:07.697</time></trkpt><trkpt lat="56.4761507" lon="84.9513980"><time>2023-11-06T07:11:33.697</time></trkpt><trkpt lat="56.4762011" lon="84.9514154"><time>2023-11-06T07:11:39.697</time></trkpt><trkpt lat="56.4762453" lon="84.9514535"><time>2023-11-06T07:11:44.700</time></trkpt><trkpt lat="56.4762932" lon="84.9514827"><time>2023-11-06T07:11:49.697</time></trkpt><trkpt lat="56.4763425" lon="84.9514983"><time>2023-11-06T07:11:54.700</time></trkpt><trkpt lat="56.4763912" lon="84.9515114"><time>2023-11-06T07:11:59.703</time></trkpt><trkpt lat="56.4764358" lon="84.9515275"><time>2023-11-06T07:12:03.700</time></trkpt><trkpt lat="56.4764840" lon="84.9515306"><time>2023-11-06T07:12:08.703</time></trkpt><trkpt lat="56.4765330" lon="84.9515196"><time>2023-11-06T07:12:14.703</time></trkpt><trkpt lat="56.4765789" lon="84.9515039"><time>2023-11-06T07:12:18.700</time></trkpt><trkpt lat="56.4766257" lon="84.9514965"><time>2023-11-06T07:12:22.700</time></trkpt><trkpt lat="56.4766712" lon="84.9515007"><time>2023-11-06T07:12:26.700</time></trkpt><trkpt lat="56.4793246" lon="84.9555434"><time>2023-11-06T07:18:20.953</time></trkpt><trkpt lat="56.4793891" lon="84.9554542"><time>2023-11-06T07:18:21.953</time></trkpt><trkpt lat="56.4794535" lon="84.9557112"><time>2023-11-06T07:18:25.253</time></trkpt><trkpt lat="56.4793997" lon="84.9556076"><time>2023-11-06T07:18:25.957</time></trkpt><trkpt lat="56.4793562" lon="84.9556672"><time>2023-11-06T07:18:27.957</time></trkpt><trkpt lat="56.4793694" lon="84.9557505"><time>2023-11-06T07:18:31.947</time></trkpt><trkpt lat="56.4793708" lon="84.9556936"><time>2023-11-06T07:18:37.333</time></trkpt><trkpt lat="56.4816162" lon="84.9505632"><time>2023-11-06T07:23:48.877</time></trkpt><trkpt lat="56.4816509" lon="84.9505053"><time>2023-11-06T07:23:54.577</time></trkpt><trkpt lat="56.4816362" lon="84.9504157"><time>2023-11-06T07:23:58.577</time></trkpt><trkpt lat="56.4816254" lon="84.9503122"><time>2023-11-06T07:24:02.577</time></trkpt><trkpt lat="56.4816187" lon="84.9502204"><time>2023-11-06T07:24:08.573</time></trkpt><trkpt lat="56.4815871" lon="84.9501609"><time>2023-11-06T07:24:21.577</time></trkpt><trkpt lat="56.4815593" lon="84.9501250"><time>2023-11-06T07:24:25.113</time></trkpt><trkpt lat="56.4833831" lon="84.9515099"><time>2023-11-06T07:28:59.557</time></trkpt><trkpt lat="56.4833534" lon="84.9514244"><time>2023-11-06T07:29:01.227</time></trkpt><trkpt lat="56.4833213" lon="84.9512690"><time>2023-11-06T07:29:02.923</time></trkpt><trkpt lat="56.4832912" lon="84.9513309"><time>2023-11-06T07:29:04.923</time></trkpt><trkpt lat="56.4833368" lon="84.9513816"><time>2023-11-06T07:29:06.920</time></trkpt><trkpt lat="56.4833837" lon="84.9514128"><time>2023-11-06T07:29:11.923</time></trkpt><trkpt lat="56.4834368" lon="84.9514398"><time>2023-11-06T07:29:16.920</time></trkpt><trkpt lat="56.4834788" lon="84.9514728"><time>2023-11-06T07:29:20.920</time></trkpt><trkpt lat="56.4835317" lon="84.9514968"><time>2023-11-06T07:29:31.923</time></trkpt><trkpt lat="56.4835718" lon="84.9515425"><time>2023-11-06T07:29:42.933</time></trkpt><trkpt lat="56.4836172" lon="84.9515516"><time>2023-11-06T07:29:46.920</time></trkpt><trkpt lat="56.4836698" lon="84.9515531"><time>2023-11-06T07:29:50.937</time></trkpt><trkpt lat="56.4837206" lon="84.9515625"><time>2023-11-06T07:29:54.927</time></trkpt><trkpt lat="56.4837707" lon="84.9515647"><time>2023-11-06T07:29:57.927</time></trkpt><trkpt lat="56.4838197" lon="84.9515791"><time>2023-11-06T07:30:00.933</time></trkpt><trkpt lat="56.4838660" lon="84.9516008"><time>2023-11-06T07:30:03.927</time></trkpt><trkpt lat="56.4839108" lon="84.9516200"><time>2023-11-06T07:30:14.923</time></trkpt><trkpt lat="56.4839190" lon="84.9517083"><time>2023-11-06T07:30:19.920</time></trkpt><trkpt lat="56.4839210" lon="84.9518045"><time>2023-11-06T07:30:23.920</time></trkpt><trkpt lat="56.4839276" lon="84.9518950"><time>2023-11-06T07:30:27.920</time></trkpt><trkpt lat="56.4839165" lon="84.9519836"><time>2023-11-06T07:30:32.923</time></trkpt><trkpt lat="56.4839130" lon="84.9520867"><time>2023-11-06T07:30:38.923</time></trkpt><trkpt lat="56.4839240" lon="84.9521913"><time>2023-11-06T07:30:42.917</time></trkpt><trkpt lat="56.4839374" lon="84.9522864"><time>2023-11-06T07:30:47.917</time></trkpt><trkpt lat="56.4839536" lon="84.9523811"><time>2023-11-06T07:30:53.017</time></trkpt><trkpt lat="56.4839977" lon="84.9524552"><time>2023-11-06T07:30:55.457</time></trkpt><trkpt lat="56.4840591" lon="84.9524139"><time>2023-11-06T07:30:55.913</time></trkpt><trkpt lat="56.4840343" lon="84.9525105"><time>2023-11-06T07:30:59.927</time></trkpt><trkpt lat="56.4840236" lon="84.9526028"><time>2023-11-06T07:31:05.927</time></trkpt><trkpt lat="56.4839962" lon="84.9526704"><time>2023-11-06T07:31:10.920</time></trkpt><trkpt lat="56.4840157" lon="84.9527681"><time>2023-11-06T07:31:17.923</time></trkpt><trkpt lat="56.4840391" lon="84.9528577"><time>2023-11-06T07:31:24.930</time></trkpt><trkpt lat="56.4840474" lon="84.9529473"><time>2023-11-06T07:31:28.927</time></trkpt><trkpt lat="56.4840677" lon="84.9530347"><time>2023-11-06T07:31:32.933</time></trkpt><trkpt lat="56.4841047" lon="84.9531025"><time>2023-11-06T07:31:38.923</time></trkpt><trkpt lat="56.4840896" lon="84.9531925"><time>2023-11-06T07:31:54.930</time></trkpt><trkpt lat="56.4840442" lon="84.9532549"><time>2023-11-06T07:32:03.927</time></trkpt><trkpt lat="56.4839843" lon="84.9533071"><time>2023-11-06T07:32:30.933</time></trkpt><trkpt lat="56.4839314" lon="84.9533576"><time>2023-11-06T07:32:33.940</time></trkpt><trkpt lat="56.4838858" lon="84.9534064"><time>2023-11-06T07:32:35.933</time></trkpt><trkpt lat="56.4838346" lon="84.9534563"><time>2023-11-06T07:32:37.933</time></trkpt><trkpt lat="56.4837846" lon="84.9535059"><time>2023-11-06T07:32:39.933</time></trkpt><trkpt lat="56.4837473" lon="84.9535534"><time>2023-11-06T07:32:42.930</time></trkpt><trkpt lat="56.4837241" lon="84.9536393"><time>2023-11-06T07:32:46.930</time></trkpt><trkpt lat="56.4836849" lon="84.9536941"><time>2023-11-06T07:32:48.933</time></trkpt><trkpt lat="56.4836347" lon="84.9537451"><time>2023-11-06T07:32:50.927</time></trkpt><trkpt lat="56.4835925" lon="84.9538051"><time>2023-11-06T07:32:53.930</time></trkpt><trkpt lat="56.4835538" lon="84.9538701"><time>2023-11-06T07:32:56.933</time></trkpt><trkpt lat="56.4835113" lon="84.9539260"><time>2023-11-06T07:32:59.933</time></trkpt><trkpt lat="56.4834656" lon="84.9539693"><time>2023-11-06T07:33:02.930</time></trkpt><trkpt lat="56.4834209" lon="84.9540021"><time>2023-11-06T07:33:05.930</time></trkpt><trkpt lat="56.4833807" lon="84.9540470"><time>2023-11-06T07:33:08.933</time></trkpt><trkpt lat="56.4833352" lon="84.9540838"><time>2023-11-06T07:33:11.933</time></trkpt><trkpt lat="56.4832802" lon="84.9541330"><time>2023-11-06T07:33:15.927</time></trkpt><trkpt lat="56.4832355" lon="84.9541816"><time>2023-11-06T07:33:18.933</time></trkpt><trkpt lat="56.4831749" lon="84.9541582"><time>2023-11-06T07:33:23.930</time></trkpt><trkpt lat="56.4831315" lon="84.9541178"><time>2023-11-06T07:33:25.933</time></trkpt><trkpt lat="56.4830868" lon="84.9540864"><time>2023-11-06T07:33:28.927</time></trkpt><trkpt lat="56.4831006" lon="84.9539920"><time>2023-11-06T07:33:40.927</time></trkpt><trkpt lat="56.4831325" lon="84.9540675"><time>2023-11-06T07:33:44.930</time></trkpt><trkpt lat="56.4831608" lon="84.9539917"><time>2023-11-06T07:33:48.927</time></trkpt><trkpt lat="56.4831496" lon="84.9539796"><time>2023-11-06T07:33:51.667</time></trkpt><trkpt lat="56.4836571" lon="84.9537454"><time>2023-11-06T07:34:14.193</time></trkpt><trkpt lat="56.4839457" lon="84.9536032"><time>2023-11-06T07:34:14.470</time></trkpt><trkpt lat="56.4834767" lon="84.9537628"><time>2023-11-06T07:34:15.480</time></trkpt><trkpt lat="56.4835938" lon="84.9538007"><time>2023-11-06T07:34:16.480</time></trkpt><trkpt lat="56.4836344" lon="84.9537604"><time>2023-11-06T07:34:17.487</time></trkpt><trkpt lat="56.4836324" lon="84.9536278"><time>2023-11-06T07:34:19.480</time></trkpt><trkpt lat="56.4836736" lon="84.9535833"><time>2023-11-06T07:34:22.473</time></trkpt><trkpt lat="56.4837261" lon="84.9535299"><time>2023-11-06T07:34:25.487</time></trkpt><trkpt lat="56.4837690" lon="84.9534647"><time>2023-11-06T07:34:28.493</time></trkpt><trkpt lat="56.4838176" lon="84.9534058"><time>2023-11-06T07:34:32.480</time></trkpt><trkpt lat="56.4838698" lon="84.9533579"><time>2023-11-06T07:34:35.487</time></trkpt><trkpt lat="56.4839217" lon="84.9533140"><time>2023-11-06T07:34:38.497</time></trkpt><trkpt lat="56.4839578" lon="84.9532634"><time>2023-11-06T07:34:41.480</time></trkpt><trkpt lat="56.4840042" lon="84.9532093"><time>2023-11-06T07:34:45.490</time></trkpt><trkpt lat="56.4840470" lon="84.9531804"><time>2023-11-06T07:34:48.490</time></trkpt><trkpt lat="56.4840820" lon="84.9531225"><time>2023-11-06T07:34:55.497</time></trkpt><trkpt lat="56.4841257" lon="84.9530712"><time>2023-11-06T07:34:59.493</time></trkpt><trkpt lat="56.4841791" lon="84.9530260"><time>2023-11-06T07:35:03.477</time></trkpt><trkpt lat="56.4842387" lon="84.9530253"><time>2023-11-06T07:35:08.487</time></trkpt><trkpt lat="56.4842892" lon="84.9530398"><time>2023-11-06T07:35:13.480</time></trkpt><trkpt lat="56.4843386" lon="84.9530672"><time>2023-11-06T07:35:18.490</time></trkpt><trkpt lat="56.4843861" lon="84.9530917"><time>2023-11-06T07:35:22.487</time></trkpt><trkpt lat="56.4844325" lon="84.9531138"><time>2023-11-06T07:35:26.493</time></trkpt><trkpt lat="56.4844661" lon="84.9531812"><time>2023-11-06T07:35:32.487</time></trkpt><trkpt lat="56.4844638" lon="84.9532626"><time>2023-11-06T07:35:38.500</time></trkpt><trkpt lat="56.4844677" lon="84.9533493"><time>2023-11-06T07:35:42.483</time></trkpt><trkpt lat="56.4844805" lon="84.9534408"><time>2023-11-06T07:35:47.487</time></trkpt><trkpt lat="56.4844832" lon="84.9535278"><time>2023-11-06T07:35:51.487</time></trkpt><trkpt lat="56.4845018" lon="84.9536108"><time>2023-11-06T07:35:59.490</time></trkpt><trkpt lat="56.4845190" lon="84.9537008"><time>2023-11-06T07:36:02.493</time></trkpt><trkpt lat="56.4845142" lon="84.9537903"><time>2023-11-06T07:36:06.497</time></trkpt><trkpt lat="56.4845270" lon="84.9538695"><time>2023-11-06T07:36:10.483</time></trkpt><trkpt lat="56.4845560" lon="84.9539470"><time>2023-11-06T07:36:24.487</time></trkpt><trkpt lat="56.4845500" lon="84.9540278"><time>2023-11-06T07:36:28.487</time></trkpt><trkpt lat="56.4845539" lon="84.9541250"><time>2023-11-06T07:36:32.483</time></trkpt><trkpt lat="56.4845600" lon="84.9542062"><time>2023-11-06T07:36:36.490</time></trkpt><trkpt lat="56.4845658" lon="84.9543165"><time>2023-11-06T07:36:41.483</time></trkpt><trkpt lat="56.4845614" lon="84.9544037"><time>2023-11-06T07:36:44.483</time></trkpt><trkpt lat="56.4845580" lon="84.9544905"><time>2023-11-06T07:36:47.487</time></trkpt><trkpt lat="56.4845554" lon="84.9545825"><time>2023-11-06T07:36:50.487</time></trkpt><trkpt lat="56.4863801" lon="84.9611693"><time>2023-11-06T07:43:06.553</time></trkpt><trkpt lat="56.4864533" lon="84.9611217"><time>2023-11-06T07:43:07.337</time></trkpt><trkpt lat="56.4864301" lon="84.9611928"><time>2023-11-06T07:43:08.320</time></trkpt><trkpt lat="56.4864089" lon="84.9612779"><time>2023-11-06T07:43:23.327</time></trkpt><trkpt lat="56.4863758" lon="84.9613540"><time>2023-11-06T07:43:27.333</time></trkpt><trkpt lat="56.4864216" lon="84.9612951"><time>2023-11-06T07:43:31.843</time></trkpt><trkpt lat="56.4863911" lon="84.9612296"><time>2023-11-06T07:43:32.330</time></trkpt><trkpt lat="56.4864223" lon="84.9612929"><time>2023-11-06T07:43:34.330</time></trkpt><trkpt lat="56.4863871" lon="84.9613562"><time>2023-11-06T07:43:37.333</time></trkpt><trkpt lat="56.4863440" lon="84.9613984"><time>2023-11-06T07:43:45.333</time></trkpt><trkpt lat="56.4863071" lon="84.9614543"><time>2023-11-06T07:43:50.327</time></trkpt><trkpt lat="56.4862771" lon="84.9615222"><time>2023-11-06T07:43:55.327</time></trkpt><trkpt lat="56.4862327" lon="84.9615655"><time>2023-11-06T07:44:01.330</time></trkpt><trkpt lat="56.4861944" lon="84.9616389"><time>2023-11-06T07:44:06.330</time></trkpt><trkpt lat="56.4861551" lon="84.9616865"><time>2023-11-06T07:44:11.333</time></trkpt><trkpt lat="56.4861276" lon="84.9617587"><time>2023-11-06T07:44:15.330</time></trkpt><trkpt lat="56.4860903" lon="84.9618365"><time>2023-11-06T07:44:19.330</time></trkpt><trkpt lat="56.4860634" lon="84.9619265"><time>2023-11-06T07:44:23.340</time></trkpt><trkpt lat="56.4860356" lon="84.9620145"><time>2023-11-06T07:44:26.327</time></trkpt><trkpt lat="56.4860120" lon="84.9620843"><time>2023-11-06T07:44:29.337</time></trkpt><trkpt lat="56.4859800" lon="84.9621490"><time>2023-11-06T07:44:32.330</time></trkpt><trkpt lat="56.4859503" lon="84.9622170"><time>2023-11-06T07:44:36.327</time></trkpt><trkpt lat="56.4859125" lon="84.9622841"><time>2023-11-06T07:44:40.333</time></trkpt><trkpt lat="56.4858806" lon="84.9623574"><time>2023-11-06T07:44:43.327</time></trkpt><trkpt lat="56.4858436" lon="84.9624388"><time>2023-11-06T07:44:47.337</time></trkpt><trkpt lat="56.4858023" lon="84.9625027"><time>2023-11-06T07:44:51.337</time></trkpt><trkpt lat="56.4856605" lon="84.9629383"><time>2023-11-06T07:44:56.727</time></trkpt><trkpt lat="56.4856915" lon="84.9628607"><time>2023-11-06T07:45:14.333</time></trkpt><trkpt lat="56.4857287" lon="84.9628054"><time>2023-11-06T07:45:18.333</time></trkpt><trkpt lat="56.4857772" lon="84.9627674"><time>2023-11-06T07:45:25.330</time></trkpt><trkpt lat="56.4858243" lon="84.9627182"><time>2023-11-06T07:45:30.333</time></trkpt><trkpt lat="56.4858742" lon="84.9626717"><time>2023-11-06T07:45:34.337</time></trkpt><trkpt lat="56.4859156" lon="84.9626081"><time>2023-11-06T07:45:39.333</time></trkpt><trkpt lat="56.4859550" lon="84.9625410"><time>2023-11-06T07:45:44.333</time></trkpt><trkpt lat="56.4859929" lon="84.9624931"><time>2023-11-06T07:45:47.330</time></trkpt><trkpt lat="56.4860341" lon="84.9624461"><time>2023-11-06T07:45:51.327</time></trkpt><trkpt lat="56.4860800" lon="84.9624090"><time>2023-11-06T07:45:55.333</time></trkpt><trkpt lat="56.4861304" lon="84.9623776"><time>2023-11-06T07:46:00.330</time></trkpt><trkpt lat="56.4861727" lon="84.9623474"><time>2023-11-06T07:46:05.340</time></trkpt><trkpt lat="56.4862092" lon="84.9622989"><time>2023-11-06T07:46:13.333</time></trkpt><trkpt lat="56.4862572" lon="84.9623182"><time>2023-11-06T07:46:20.330</time></trkpt><trkpt lat="56.4862866" lon="84.9623876"><time>2023-11-06T07:46:26.330</time></trkpt><trkpt lat="56.4863274" lon="84.9624614"><time>2023-11-06T07:46:29.330</time></trkpt><trkpt lat="56.4863730" lon="84.9624790"><time>2023-11-06T07:46:36.337</time></trkpt><trkpt lat="56.4864159" lon="84.9625396"><time>2023-11-06T07:46:41.327</time></trkpt><trkpt lat="56.4864569" lon="84.9625873"><time>2023-11-06T07:46:46.340</time></trkpt><trkpt lat="56.4864945" lon="84.9626349"><time>2023-11-06T07:46:51.333</time></trkpt><trkpt lat="56.4865203" lon="84.9627067"><time>2023-11-06T07:46:55.340</time></trkpt><trkpt lat="56.4865417" lon="84.9628006"><time>2023-11-06T07:47:00.327</time></trkpt><trkpt lat="56.4865625" lon="84.9628780"><time>2023-11-06T07:47:04.343</time></trkpt><trkpt lat="56.4865886" lon="84.9629523"><time>2023-11-06T07:47:08.343</time></trkpt><trkpt lat="56.4866060" lon="84.9630445"><time>2023-11-06T07:47:13.340</time></trkpt><trkpt lat="56.4866338" lon="84.9631182"><time>2023-11-06T07:47:18.343</time></trkpt><trkpt lat="56.4866687" lon="84.9631836"><time>2023-11-06T07:47:22.333</time></trkpt><trkpt lat="56.4866981" lon="84.9632621"><time>2023-11-06T07:47:27.337</time></trkpt><trkpt lat="56.4867262" lon="84.9633503"><time>2023-11-06T07:47:32.330</time></trkpt><trkpt lat="56.4867369" lon="84.9634396"><time>2023-11-06T07:47:36.337</time></trkpt><trkpt lat="56.4867453" lon="84.9635238"><time>2023-11-06T07:47:40.337</time></trkpt><trkpt lat="56.4867443" lon="84.9636177"><time>2023-11-06T07:47:47.340</time></trkpt><trkpt lat="56.4867572" lon="84.9637148"><time>2023-11-06T07:47:51.343</time></trkpt><trkpt lat="56.4867707" lon="84.9638024"><time>2023-11-06T07:47:55.343</time></trkpt><trkpt lat="56.4867968" lon="84.9638826"><time>2023-11-06T07:47:58.340</time></trkpt><trkpt lat="56.4868231" lon="84.9639533"><time>2023-11-06T07:48:01.340</time></trkpt><trkpt lat="56.4868506" lon="84.9640196"><time>2023-11-06T07:48:04.333</time></trkpt><trkpt lat="56.4868840" lon="84.9641044"><time>2023-11-06T07:48:08.333</time></trkpt><trkpt lat="56.4869141" lon="84.9641745"><time>2023-11-06T07:48:12.340</time></trkpt><trkpt lat="56.4869553" lon="84.9642221"><time>2023-11-06T07:48:16.340</time></trkpt><trkpt lat="56.4870013" lon="84.9642708"><time>2023-11-06T07:48:20.337</time></trkpt><trkpt lat="56.4870421" lon="84.9643416"><time>2023-11-06T07:48:24.337</time></trkpt><trkpt lat="56.4870778" lon="84.9644029"><time>2023-11-06T07:48:28.337</time></trkpt><trkpt lat="56.4871203" lon="84.9644564"><time>2023-11-06T07:48:32.340</time></trkpt><trkpt lat="56.4871652" lon="84.9645264"><time>2023-11-06T07:48:36.337</time></trkpt><trkpt lat="56.4872103" lon="84.9645759"><time>2023-11-06T07:48:40.333</time></trkpt><trkpt lat="56.4872548" lon="84.9646468"><time>2023-11-06T07:48:44.340</time></trkpt><trkpt lat="56.4873015" lon="84.9646857"><time>2023-11-06T07:48:48.333</time></trkpt><trkpt lat="56.4873395" lon="84.9647408"><time>2023-11-06T07:48:52.340</time></trkpt><trkpt lat="56.4873790" lon="84.9647997"><time>2023-11-06T07:48:56.337</time></trkpt><trkpt lat="56.4874155" lon="84.9648737"><time>2023-11-06T07:49:00.340</time></trkpt><trkpt lat="56.4874457" lon="84.9649349"><time>2023-11-06T07:49:03.337</time></trkpt><trkpt lat="56.4874697" lon="84.9650066"><time>2023-11-06T07:49:06.340</time></trkpt><trkpt lat="56.4874914" lon="84.9650815"><time>2023-11-06T07:49:09.340</time></trkpt><trkpt lat="56.4875303" lon="84.9651359"><time>2023-11-06T07:49:14.337</time></trkpt><trkpt lat="56.4875674" lon="84.9651897"><time>2023-11-06T07:49:18.337</time></trkpt><trkpt lat="56.4875967" lon="84.9652653"><time>2023-11-06T07:49:22.340</time></trkpt><trkpt lat="56.4876134" lon="84.9653637"><time>2023-11-06T07:49:26.333</time></trkpt><trkpt lat="56.4876319" lon="84.9654461"><time>2023-11-06T07:49:30.327</time></trkpt><trkpt lat="56.4876517" lon="84.9655444"><time>2023-11-06T07:49:34.330</time></trkpt><trkpt lat="56.4876666" lon="84.9656362"><time>2023-11-06T07:49:38.333</time></trkpt><trkpt lat="56.4876749" lon="84.9657243"><time>2023-11-06T07:49:42.337</time></trkpt><trkpt lat="56.4876863" lon="84.9658118"><time>2023-11-06T07:49:47.330</time></trkpt><trkpt lat="56.4876969" lon="84.9658973"><time>2023-11-06T07:49:51.330</time></trkpt><trkpt lat="56.4877254" lon="84.9659629"><time>2023-11-06T07:49:56.340</time></trkpt><trkpt lat="56.4877781" lon="84.9659253"><time>2023-11-06T07:50:00.360</time></trkpt><trkpt lat="56.4877968" lon="84.9660011"><time>2023-11-06T07:50:07.337</time></trkpt><trkpt lat="56.4878089" lon="84.9660929"><time>2023-11-06T07:50:10.340</time></trkpt><trkpt lat="56.4878178" lon="84.9661921"><time>2023-11-06T07:50:13.340</time></trkpt><trkpt lat="56.4878331" lon="84.9662886"><time>2023-11-06T07:50:17.337</time></trkpt><trkpt lat="56.4878425" lon="84.9663863"><time>2023-11-06T07:50:20.337</time></trkpt><trkpt lat="56.4878357" lon="84.9664681"><time>2023-11-06T07:50:23.350</time></trkpt><trkpt lat="56.4878195" lon="84.9665559"><time>2023-11-06T07:50:26.330</time></trkpt><trkpt lat="56.4878126" lon="84.9666535"><time>2023-11-06T07:50:30.330</time></trkpt><trkpt lat="56.4878117" lon="84.9667540"><time>2023-11-06T07:50:34.330</time></trkpt><trkpt lat="56.4878074" lon="84.9668588"><time>2023-11-06T07:50:38.333</time></trkpt><trkpt lat="56.4877940" lon="84.9669418"><time>2023-11-06T07:50:41.337</time></trkpt><trkpt lat="56.4877879" lon="84.9670430"><time>2023-11-06T07:50:45.337</time></trkpt><trkpt lat="56.4877781" lon="84.9671446"><time>2023-11-06T07:50:50.337</time></trkpt><trkpt lat="56.4877797" lon="84.9672478"><time>2023-11-06T07:50:54.337</time></trkpt><trkpt lat="56.4877970" lon="84.9673235"><time>2023-11-06T07:50:57.330</time></trkpt><trkpt lat="56.4878000" lon="84.9674121"><time>2023-11-06T07:51:01.337</time></trkpt><trkpt lat="56.4878104" lon="84.9675038"><time>2023-11-06T07:51:06.340</time></trkpt><trkpt lat="56.4878460" lon="84.9675786"><time>2023-11-06T07:51:11.337</time></trkpt><trkpt lat="56.4878812" lon="84.9676630"><time>2023-11-06T07:51:16.337</time></trkpt><trkpt lat="56.4878822" lon="84.9677555"><time>2023-11-06T07:51:29.330</time></trkpt><trkpt lat="56.4878705" lon="84.9678513"><time>2023-11-06T07:51:35.330</time></trkpt><trkpt lat="56.4878612" lon="84.9679629"><time>2023-11-06T07:51:38.330</time></trkpt><trkpt lat="56.4878648" lon="84.9680553"><time>2023-11-06T07:51:42.333</time></trkpt><trkpt lat="56.4878762" lon="84.9681534"><time>2023-11-06T07:51:47.330</time></trkpt><trkpt lat="56.4878916" lon="84.9682432"><time>2023-11-06T07:51:51.337</time></trkpt><trkpt lat="56.4879064" lon="84.9683260"><time>2023-11-06T07:51:55.333</time></trkpt><trkpt lat="56.4879204" lon="84.9684034"><time>2023-11-06T07:51:59.337</time></trkpt><trkpt lat="56.4879286" lon="84.9684847"><time>2023-11-06T07:52:03.333</time></trkpt><trkpt lat="56.4879374" lon="84.9685685"><time>2023-11-06T07:52:07.333</time></trkpt><trkpt lat="56.4879494" lon="84.9686531"><time>2023-11-06T07:52:13.330</time></trkpt><trkpt lat="56.4879763" lon="84.9689190"><time>2023-11-06T07:52:21.907</time></trkpt><trkpt lat="56.4879123" lon="84.9689351"><time>2023-11-06T07:52:23.323</time></trkpt><trkpt lat="56.4879466" lon="84.9690010"><time>2023-11-06T07:53:33.333</time></trkpt><trkpt lat="56.4879683" lon="84.9690800"><time>2023-11-06T07:53:38.337</time></trkpt><trkpt lat="56.4879829" lon="84.9691737"><time>2023-11-06T07:53:42.337</time></trkpt><trkpt lat="56.4880013" lon="84.9692568"><time>2023-11-06T07:53:46.343</time></trkpt><trkpt lat="56.4880096" lon="84.9693468"><time>2023-11-06T07:53:51.343</time></trkpt><trkpt lat="56.4880396" lon="84.9694137"><time>2023-11-06T07:54:00.333</time></trkpt><trkpt lat="56.4880696" lon="84.9694898"><time>2023-11-06T07:54:05.343</time></trkpt><trkpt lat="56.4880904" lon="84.9695749"><time>2023-11-06T07:54:09.337</time></trkpt><trkpt lat="56.4881098" lon="84.9696537"><time>2023-11-06T07:54:12.337</time></trkpt><trkpt lat="56.4881295" lon="84.9697379"><time>2023-11-06T07:54:15.337</time></trkpt><trkpt lat="56.4881735" lon="84.9699111"><time>2023-11-06T07:54:19.447</time></trkpt><trkpt lat="56.4882216" lon="84.9699350"><time>2023-11-06T07:54:24.697</time></trkpt><trkpt lat="56.4881678" lon="84.9699360"><time>2023-11-06T07:54:24.700</time></trkpt><trkpt lat="56.4881475" lon="84.9700126"><time>2023-11-06T07:54:33.327</time></trkpt><trkpt lat="56.4875988" lon="84.9800789"><time>2023-11-06T08:04:00.167</time></trkpt><trkpt lat="56.4878701" lon="84.9802377"><time>2023-11-06T08:04:01.150</time></trkpt><trkpt lat="56.4877776" lon="84.9802939"><time>2023-11-06T08:04:03.140</time></trkpt><trkpt lat="56.4877354" lon="84.9802470"><time>2023-11-06T08:04:04.183</time></trkpt></trkseg></trk></gpx>